TimeEDT,TemperatureF,Dew PointF,Humidity,Sea Level PressureIn,VisibilityMPH,Wind Direction,Wind SpeedMPH,Gust SpeedMPH,PrecipitationIn,Events,Conditions,WindDirDegrees,DateUTC
12:53 AM,55.9,42.1,60,30.18,10.0,NW,9.2,-,N/A,,Clear,310,2013-03-14 04:53:00
1:53 AM,55.0,42.1,62,30.18,10.0,WNW,9.2,-,N/A,,Clear,300,2013-03-14 05:53:00
2:53 AM,52.0,42.1,69,30.17,10.0,NW,5.8,-,N/A,,Clear,320,2013-03-14 06:53:00
3:53 AM,53.1,37.9,57,30.17,10.0,NNW,11.5,-,N/A,,Clear,330,2013-03-14 07:53:00
4:53 AM,52.0,34.0,50,30.18,10.0,NNW,10.4,-,N/A,,Partly Cloudy,330,2013-03-14 08:53:00
5:53 AM,51.1,32.0,48,30.20,10.0,NNW,11.5,-,N/A,,Partly Cloudy,340,2013-03-14 09:53:00
6:53 AM,50.0,28.9,44,30.22,10.0,NNW,16.1,-,N/A,,Partly Cloudy,340,2013-03-14 10:53:00
7:53 AM,48.9,30.0,48,30.25,10.0,NNW,11.5,-,N/A,,Partly Cloudy,340,2013-03-14 11:53:00
8:53 AM,51.1,28.9,43,30.27,10.0,North,13.8,-,N/A,,Partly Cloudy,350,2013-03-14 12:53:00
9:53 AM,54.0,28.0,37,30.28,10.0,North,16.1,24.2,N/A,,Partly Cloudy,350,2013-03-14 13:53:00
10:53 AM,57.0,28.9,34,30.28,10.0,NNW,15.0,-,N/A,,Clear,340,2013-03-14 14:53:00
11:53 AM,60.1,28.0,30,30.27,10.0,North,12.7,20.7,N/A,,Clear,350,2013-03-14 15:53:00
12:53 PM,63.0,28.9,28,30.25,10.0,NNW,11.5,-,N/A,,Partly Cloudy,340,2013-03-14 16:53:00
1:53 PM,64.9,25.0,22,30.23,10.0,NW,13.8,-,N/A,,Partly Cloudy,320,2013-03-14 17:53:00
2:53 PM,66.9,24.1,20,30.21,10.0,North,11.5,17.3,N/A,,Partly Cloudy,360,2013-03-14 18:53:00
3:53 PM,68.0,23.0,18,30.20,10.0,NNE,10.4,18.4,N/A,,Partly Cloudy,20,2013-03-14 19:53:00
4:53 PM,68.0,23.0,18,30.18,10.0,North,9.2,17.3,N/A,,Partly Cloudy,350,2013-03-14 20:53:00
5:53 PM,68.0,23.0,18,30.19,10.0,North,11.5,16.1,N/A,,Partly Cloudy,350,2013-03-14 21:53:00
6:53 PM,63.0,37.0,38,30.19,10.0,ENE,15.0,-,N/A,,Partly Cloudy,60,2013-03-14 22:53:00
7:53 PM,57.0,39.0,51,30.22,10.0,NE,13.8,-,N/A,,Clear,40,2013-03-14 23:53:00
8:53 PM,53.1,39.9,61,30.23,10.0,East,9.2,-,N/A,,Clear,80,2013-03-15 00:53:00
9:53 PM,51.1,39.0,63,30.25,10.0,NE,8.1,-,N/A,,Clear,40,2013-03-15 01:53:00
10:53 PM,48.9,39.0,69,30.27,10.0,NNE,6.9,-,N/A,,Clear,20,2013-03-15 02:53:00
11:53 PM,48.0,39.0,71,30.27,10.0,Calm,Calm,-,N/A,,Clear,0,2013-03-15 03:53:00